sensor_id;sensor_type;location;lat;lon;timestamp;temperature;humidity
913;DHT22;443;51.448;7.028;2022-12-07T00:01:21;11.70;74.80
913;DHT22;443;51.448;7.028;2022-12-07T00:03:52;11.50;74.50
913;DHT22;443;51.448;7.028;2022-12-07T00:06:20;11.50;74.60
913;DHT22;443;51.448;7.028;2022-12-07T00:08:46;11.60;74.80
913;DHT22;443;51.448;7.028;2022-12-07T00:11:15;11.50;74.50
913;DHT22;443;51.448;7.028;2022-12-07T00:13:43;11.60;74.80
913;DHT22;443;51.448;7.028;2022-12-07T00:16:12;11.60;74.90
913;DHT22;443;51.448;7.028;2022-12-07T00:18:39;11.60;75.10
913;DHT22;443;51.448;7.028;2022-12-07T00:21:10;11.60;74.80
913;DHT22;443;51.448;7.028;2022-12-07T00:23:37;11.60;74.50
913;DHT22;443;51.448;7.028;2022-12-07T00:26:05;11.60;75.70
913;DHT22;443;51.448;7.028;2022-12-07T00:28:32;11.60;75.30
913;DHT22;443;51.448;7.028;2022-12-07T00:31:01;11.60;75.10
913;DHT22;443;51.448;7.028;2022-12-07T00:33:28;11.60;75.00
913;DHT22;443;51.448;7.028;2022-12-07T00:35:55;11.70;75.30
913;DHT22;443;51.448;7.028;2022-12-07T00:38:24;11.60;74.80
913;DHT22;443;51.448;7.028;2022-12-07T00:40:55;11.60;74.80
913;DHT22;443;51.448;7.028;2022-12-07T00:43:22;11.60;74.50
913;DHT22;443;51.448;7.028;2022-12-07T00:45:49;11.60;75.00
913;DHT22;443;51.448;7.028;2022-12-07T00:48:16;11.60;75.10
913;DHT22;443;51.448;7.028;2022-12-07T00:50:43;11.60;74.70
913;DHT22;443;51.448;7.028;2022-12-07T00:53:10;11.60;74.80
913;DHT22;443;51.448;7.028;2022-12-07T00:55:38;11.60;75.20
913;DHT22;443;51.448;7.028;2022-12-07T00:58:04;11.50;74.50
913;DHT22;443;51.448;7.028;2022-12-07T01:00:31;11.60;75.00
913;DHT22;443;51.448;7.028;2022-12-07T01:02:59;11.60;74.90
913;DHT22;443;51.448;7.028;2022-12-07T01:05:25;11.60;74.80
913;DHT22;443;51.448;7.028;2022-12-07T01:07:52;11.60;74.90
913;DHT22;443;51.448;7.028;2022-12-07T01:10:19;11.50;74.70
913;DHT22;443;51.448;7.028;2022-12-07T01:12:47;11.60;75.50
913;DHT22;443;51.448;7.028;2022-12-07T01:15:14;11.50;74.30
913;DHT22;443;51.448;7.028;2022-12-07T01:17:41;11.60;75.10
913;DHT22;443;51.448;7.028;2022-12-07T01:20:08;11.60;75.10
913;DHT22;443;51.448;7.028;2022-12-07T01:22:36;11.60;74.90
913;DHT22;443;51.448;7.028;2022-12-07T01:25:04;11.60;75.10
913;DHT22;443;51.448;7.028;2022-12-07T01:27:32;11.60;74.90
913;DHT22;443;51.448;7.028;2022-12-07T01:30:00;11.50;75.40
913;DHT22;443;51.448;7.028;2022-12-07T01:32:27;11.60;74.80
913;DHT22;443;51.448;7.028;2022-12-07T01:34:55;11.60;75.10
913;DHT22;443;51.448;7.028;2022-12-07T01:37:21;11.50;74.90
913;DHT22;443;51.448;7.028;2022-12-07T01:39:48;11.50;75.00
913;DHT22;443;51.448;7.028;2022-12-07T01:42:15;11.50;75.10
913;DHT22;443;51.448;7.028;2022-12-07T01:47:53;11.50;74.70
913;DHT22;443;51.448;7.028;2022-12-07T01:50:22;11.60;75.20
913;DHT22;443;51.448;7.028;2022-12-07T01:52:51;11.60;74.70
913;DHT22;443;51.448;7.028;2022-12-07T01:55:19;11.60;74.80
913;DHT22;443;51.448;7.028;2022-12-07T01:57:49;11.60;74.50
913;DHT22;443;51.448;7.028;2022-12-07T02:00:17;11.60;74.50
913;DHT22;443;51.448;7.028;2022-12-07T02:02:48;11.50;74.90
913;DHT22;443;51.448;7.028;2022-12-07T02:05:18;11.60;74.80
913;DHT22;443;51.448;7.028;2022-12-07T02:07:47;11.50;74.70
913;DHT22;443;51.448;7.028;2022-12-07T02:10:15;11.50;74.80
913;DHT22;443;51.448;7.028;2022-12-07T02:12:44;11.50;74.40
913;DHT22;443;51.448;7.028;2022-12-07T02:15:11;11.50;74.70
913;DHT22;443;51.448;7.028;2022-12-07T02:17:44;11.50;75.00
913;DHT22;443;51.448;7.028;2022-12-07T02:20:28;11.50;74.70
913;DHT22;443;51.448;7.028;2022-12-07T02:26:29;11.50;74.70
913;DHT22;443;51.448;7.028;2022-12-07T02:29:13;11.50;74.70
913;DHT22;443;51.448;7.028;2022-12-07T02:31:46;11.50;74.50
913;DHT22;443;51.448;7.028;2022-12-07T02:34:20;11.40;74.90
913;DHT22;443;51.448;7.028;2022-12-07T02:36:53;11.50;75.80
913;DHT22;443;51.448;7.028;2022-12-07T02:39:25;11.50;74.50
913;DHT22;443;51.448;7.028;2022-12-07T02:41:56;11.40;74.40
913;DHT22;443;51.448;7.028;2022-12-07T02:44:28;11.40;74.70
913;DHT22;443;51.448;7.028;2022-12-07T02:46:59;11.30;74.80
913;DHT22;443;51.448;7.028;2022-12-07T02:49:28;11.40;74.80
913;DHT22;443;51.448;7.028;2022-12-07T02:51:55;11.40;74.90
913;DHT22;443;51.448;7.028;2022-12-07T02:54:22;11.40;74.90
913;DHT22;443;51.448;7.028;2022-12-07T02:56:52;11.40;75.80
913;DHT22;443;51.448;7.028;2022-12-07T02:59:32;11.40;74.60
913;DHT22;443;51.448;7.028;2022-12-07T03:02:13;11.40;74.70
913;DHT22;443;51.448;7.028;2022-12-07T03:04:52;11.40;74.40
913;DHT22;443;51.448;7.028;2022-12-07T03:07:30;11.40;74.70
913;DHT22;443;51.448;7.028;2022-12-07T03:10:03;11.40;75.00
913;DHT22;443;51.448;7.028;2022-12-07T03:12:40;11.40;74.80
913;DHT22;443;51.448;7.028;2022-12-07T03:15:14;11.40;74.50
913;DHT22;443;51.448;7.028;2022-12-07T03:17:43;11.40;75.00
913;DHT22;443;51.448;7.028;2022-12-07T03:20:12;11.40;74.70
913;DHT22;443;51.448;7.028;2022-12-07T03:22:41;11.40;74.20
913;DHT22;443;51.448;7.028;2022-12-07T03:25:11;11.40;74.70
913;DHT22;443;51.448;7.028;2022-12-07T03:27:44;11.30;74.50
913;DHT22;443;51.448;7.028;2022-12-07T03:30:18;11.40;74.60
913;DHT22;443;51.448;7.028;2022-12-07T03:32:49;11.30;74.60
913;DHT22;443;51.448;7.028;2022-12-07T03:35:20;11.30;74.40
913;DHT22;443;51.448;7.028;2022-12-07T03:37:51;11.30;74.90
913;DHT22;443;51.448;7.028;2022-12-07T03:40:22;11.30;74.70
913;DHT22;443;51.448;7.028;2022-12-07T03:43:13;11.30;74.30
913;DHT22;443;51.448;7.028;2022-12-07T03:45:44;11.30;74.50
913;DHT22;443;51.448;7.028;2022-12-07T03:48:22;11.20;74.20
913;DHT22;443;51.448;7.028;2022-12-07T03:50:53;11.30;75.30
913;DHT22;443;51.448;7.028;2022-12-07T03:53:26;11.30;74.70
913;DHT22;443;51.448;7.028;2022-12-07T03:55:57;11.20;74.80
913;DHT22;443;51.448;7.028;2022-12-07T03:58:25;11.20;74.20
913;DHT22;443;51.448;7.028;2022-12-07T04:00:54;11.20;74.70
913;DHT22;443;51.448;7.028;2022-12-07T04:03:21;11.20;73.90
913;DHT22;443;51.448;7.028;2022-12-07T04:05:48;11.20;74.50
913;DHT22;443;51.448;7.028;2022-12-07T04:08:15;11.20;75.10
913;DHT22;443;51.448;7.028;2022-12-07T04:10:41;11.20;74.60
913;DHT22;443;51.448;7.028;2022-12-07T04:13:08;11.30;74.60
913;DHT22;443;51.448;7.028;2022-12-07T04:15:35;11.20;74.20
913;DHT22;443;51.448;7.028;2022-12-07T04:18:03;11.20;74.50
913;DHT22;443;51.448;7.028;2022-12-07T04:20:30;11.20;74.60
913;DHT22;443;51.448;7.028;2022-12-07T04:22:56;11.20;74.50
913;DHT22;443;51.448;7.028;2022-12-07T04:25:23;11.20;74.90
913;DHT22;443;51.448;7.028;2022-12-07T04:27:50;11.20;74.70
913;DHT22;443;51.448;7.028;2022-12-07T04:30:17;11.20;74.70
913;DHT22;443;51.448;7.028;2022-12-07T04:32:44;11.20;74.80
913;DHT22;443;51.448;7.028;2022-12-07T04:35:12;11.20;74.40
913;DHT22;443;51.448;7.028;2022-12-07T04:37:38;11.20;74.60
913;DHT22;443;51.448;7.028;2022-12-07T04:40:07;11.10;74.20
913;DHT22;443;51.448;7.028;2022-12-07T04:42:35;11.10;74.70
913;DHT22;443;51.448;7.028;2022-12-07T04:45:02;11.10;74.20
913;DHT22;443;51.448;7.028;2022-12-07T04:47:29;11.10;74.80
913;DHT22;443;51.448;7.028;2022-12-07T04:49:56;11.20;74.90
913;DHT22;443;51.448;7.028;2022-12-07T04:52:24;11.10;74.30
913;DHT22;443;51.448;7.028;2022-12-07T04:54:51;11.10;74.60
913;DHT22;443;51.448;7.028;2022-12-07T04:57:18;11.00;74.40
913;DHT22;443;51.448;7.028;2022-12-07T04:59:44;11.00;74.20
913;DHT22;443;51.448;7.028;2022-12-07T05:02:11;11.10;74.90
913;DHT22;443;51.448;7.028;2022-12-07T05:04:38;11.10;74.50
913;DHT22;443;51.448;7.028;2022-12-07T05:07:04;11.10;75.20
913;DHT22;443;51.448;7.028;2022-12-07T05:09:32;11.10;74.80
913;DHT22;443;51.448;7.028;2022-12-07T05:11:59;11.10;74.60
913;DHT22;443;51.448;7.028;2022-12-07T05:14:26;11.10;74.70
913;DHT22;443;51.448;7.028;2022-12-07T05:16:53;11.10;74.30
913;DHT22;443;51.448;7.028;2022-12-07T05:19:19;11.00;73.90
913;DHT22;443;51.448;7.028;2022-12-07T05:21:46;11.00;74.60
913;DHT22;443;51.448;7.028;2022-12-07T05:24:15;11.00;74.90
913;DHT22;443;51.448;7.028;2022-12-07T05:26:44;10.90;74.00
913;DHT22;443;51.448;7.028;2022-12-07T05:29:12;11.00;74.80
913;DHT22;443;51.448;7.028;2022-12-07T05:31:39;11.00;74.40
913;DHT22;443;51.448;7.028;2022-12-07T05:34:05;11.00;74.00
913;DHT22;443;51.448;7.028;2022-12-07T05:36:32;11.00;74.50
913;DHT22;443;51.448;7.028;2022-12-07T05:38:59;11.00;74.30
913;DHT22;443;51.448;7.028;2022-12-07T05:41:26;11.00;74.30
913;DHT22;443;51.448;7.028;2022-12-07T05:44:12;11.00;74.20
913;DHT22;443;51.448;7.028;2022-12-07T05:46:39;11.00;74.00
913;DHT22;443;51.448;7.028;2022-12-07T05:49:05;10.90;74.60
913;DHT22;443;51.448;7.028;2022-12-07T05:51:32;11.10;74.90
913;DHT22;443;51.448;7.028;2022-12-07T05:53:59;11.00;74.00
913;DHT22;443;51.448;7.028;2022-12-07T05:56:26;11.00;74.20
913;DHT22;443;51.448;7.028;2022-12-07T05:58:53;11.10;74.50
913;DHT22;443;51.448;7.028;2022-12-07T06:01:39;11.20;74.80
913;DHT22;443;51.448;7.028;2022-12-07T06:04:05;11.20;74.20
913;DHT22;443;51.448;7.028;2022-12-07T06:06:32;11.10;74.30
913;DHT22;443;51.448;7.028;2022-12-07T06:08:59;11.30;75.70
913;DHT22;443;51.448;7.028;2022-12-07T06:11:26;11.30;74.10
913;DHT22;443;51.448;7.028;2022-12-07T06:14:10;11.30;74.50
913;DHT22;443;51.448;7.028;2022-12-07T06:16:38;11.20;74.10
913;DHT22;443;51.448;7.028;2022-12-07T06:19:05;11.30;75.60
913;DHT22;443;51.448;7.028;2022-12-07T06:21:32;11.30;75.80
913;DHT22;443;51.448;7.028;2022-12-07T06:23:58;11.20;74.60
913;DHT22;443;51.448;7.028;2022-12-07T06:26:25;11.20;74.40
913;DHT22;443;51.448;7.028;2022-12-07T06:28:52;11.20;73.70
913;DHT22;443;51.448;7.028;2022-12-07T06:31:19;11.20;73.60
913;DHT22;443;51.448;7.028;2022-12-07T06:33:47;11.20;75.10
913;DHT22;443;51.448;7.028;2022-12-07T06:36:14;11.20;74.60
913;DHT22;443;51.448;7.028;2022-12-07T06:38:40;11.20;73.90
913;DHT22;443;51.448;7.028;2022-12-07T06:41:07;11.00;73.70
913;DHT22;443;51.448;7.028;2022-12-07T06:43:34;11.10;73.60
913;DHT22;443;51.448;7.028;2022-12-07T06:46:01;11.20;75.10
913;DHT22;443;51.448;7.028;2022-12-07T06:48:27;11.20;73.70
913;DHT22;443;51.448;7.028;2022-12-07T06:50:55;11.20;73.70
913;DHT22;443;51.448;7.028;2022-12-07T06:53:22;11.10;74.00
913;DHT22;443;51.448;7.028;2022-12-07T06:55:49;11.00;73.70
913;DHT22;443;51.448;7.028;2022-12-07T06:58:17;11.20;74.30
913;DHT22;443;51.448;7.028;2022-12-07T07:00:44;11.20;73.60
913;DHT22;443;51.448;7.028;2022-12-07T07:03:10;11.40;75.90
913;DHT22;443;51.448;7.028;2022-12-07T07:05:37;11.30;73.30
913;DHT22;443;51.448;7.028;2022-12-07T07:08:05;11.20;73.80
913;DHT22;443;51.448;7.028;2022-12-07T07:10:32;11.20;74.20
913;DHT22;443;51.448;7.028;2022-12-07T07:12:59;11.30;74.30
913;DHT22;443;51.448;7.028;2022-12-07T07:15:26;11.30;74.00
913;DHT22;443;51.448;7.028;2022-12-07T07:17:52;11.30;73.50
913;DHT22;443;51.448;7.028;2022-12-07T07:20:19;11.30;74.80
913;DHT22;443;51.448;7.028;2022-12-07T07:22:46;11.20;74.50
913;DHT22;443;51.448;7.028;2022-12-07T07:25:14;11.20;74.10
913;DHT22;443;51.448;7.028;2022-12-07T07:27:41;11.30;74.40
913;DHT22;443;51.448;7.028;2022-12-07T07:30:09;11.40;74.60
913;DHT22;443;51.448;7.028;2022-12-07T07:32:36;11.40;74.60
913;DHT22;443;51.448;7.028;2022-12-07T07:35:04;11.40;75.60
913;DHT22;443;51.448;7.028;2022-12-07T07:37:31;11.40;75.40
913;DHT22;443;51.448;7.028;2022-12-07T07:39:58;11.40;74.80
913;DHT22;443;51.448;7.028;2022-12-07T07:42:26;11.40;74.90
913;DHT22;443;51.448;7.028;2022-12-07T07:44:52;11.30;73.10
913;DHT22;443;51.448;7.028;2022-12-07T07:47:19;11.30;74.60
913;DHT22;443;51.448;7.028;2022-12-07T07:49:46;11.40;74.50
913;DHT22;443;51.448;7.028;2022-12-07T07:52:13;11.20;73.30
913;DHT22;443;51.448;7.028;2022-12-07T07:54:39;11.20;73.90
913;DHT22;443;51.448;7.028;2022-12-07T07:57:06;11.30;74.20
913;DHT22;443;51.448;7.028;2022-12-07T07:59:34;11.30;75.40
913;DHT22;443;51.448;7.028;2022-12-07T08:02:01;11.40;74.40
913;DHT22;443;51.448;7.028;2022-12-07T08:04:28;11.30;74.10
913;DHT22;443;51.448;7.028;2022-12-07T08:06:54;11.40;74.90
913;DHT22;443;51.448;7.028;2022-12-07T08:09:21;11.50;74.80
913;DHT22;443;51.448;7.028;2022-12-07T08:11:48;11.50;75.40
913;DHT22;443;51.448;7.028;2022-12-07T08:14:15;11.40;73.80
913;DHT22;443;51.448;7.028;2022-12-07T08:16:43;11.40;75.00
913;DHT22;443;51.448;7.028;2022-12-07T08:19:09;11.40;74.80
913;DHT22;443;51.448;7.028;2022-12-07T08:21:37;11.30;73.60
913;DHT22;443;51.448;7.028;2022-12-07T08:24:04;11.20;73.50
913;DHT22;443;51.448;7.028;2022-12-07T08:26:31;11.30;74.20
913;DHT22;443;51.448;7.028;2022-12-07T08:28:59;11.30;73.00
913;DHT22;443;51.448;7.028;2022-12-07T08:31:25;11.10;73.20
913;DHT22;443;51.448;7.028;2022-12-07T08:33:54;11.20;75.80
913;DHT22;443;51.448;7.028;2022-12-07T08:36:22;11.30;74.30
913;DHT22;443;51.448;7.028;2022-12-07T08:38:49;11.20;73.70
913;DHT22;443;51.448;7.028;2022-12-07T08:41:16;11.30;74.10
913;DHT22;443;51.448;7.028;2022-12-07T08:43:43;11.10;73.20
913;DHT22;443;51.448;7.028;2022-12-07T08:46:12;11.20;74.30
913;DHT22;443;51.448;7.028;2022-12-07T08:48:44;11.30;74.50
913;DHT22;443;51.448;7.028;2022-12-07T08:51:13;11.20;73.40
913;DHT22;443;51.448;7.028;2022-12-07T08:53:41;11.20;73.30
913;DHT22;443;51.448;7.028;2022-12-07T08:56:09;11.30;75.60
913;DHT22;443;51.448;7.028;2022-12-07T08:58:36;11.10;73.00
913;DHT22;443;51.448;7.028;2022-12-07T09:01:04;11.10;73.10
913;DHT22;443;51.448;7.028;2022-12-07T09:03:31;10.90;73.20
913;DHT22;443;51.448;7.028;2022-12-07T09:05:58;11.10;73.40
913;DHT22;443;51.448;7.028;2022-12-07T09:08:29;11.30;75.60
913;DHT22;443;51.448;7.028;2022-12-07T09:10:57;11.40;74.90
913;DHT22;443;51.448;7.028;2022-12-07T09:13:24;11.40;73.60
913;DHT22;443;51.448;7.028;2022-12-07T09:15:51;11.30;74.70
913;DHT22;443;51.448;7.028;2022-12-07T09:18:17;11.20;72.90
913;DHT22;443;51.448;7.028;2022-12-07T09:20:44;11.30;73.60
913;DHT22;443;51.448;7.028;2022-12-07T09:23:11;11.30;73.00
913;DHT22;443;51.448;7.028;2022-12-07T09:25:39;11.30;72.90
913;DHT22;443;51.448;7.028;2022-12-07T09:28:06;11.30;72.90
913;DHT22;443;51.448;7.028;2022-12-07T09:30:33;11.40;74.80
913;DHT22;443;51.448;7.028;2022-12-07T09:33:00;11.40;74.30
913;DHT22;443;51.448;7.028;2022-12-07T09:35:26;11.20;72.60
913;DHT22;443;51.448;7.028;2022-12-07T09:37:53;11.20;73.10
913;DHT22;443;51.448;7.028;2022-12-07T09:40:22;11.20;73.70
913;DHT22;443;51.448;7.028;2022-12-07T09:42:52;11.20;73.20
913;DHT22;443;51.448;7.028;2022-12-07T09:45:23;11.20;73.70
913;DHT22;443;51.448;7.028;2022-12-07T09:47:50;11.10;72.20
913;DHT22;443;51.448;7.028;2022-12-07T09:50:20;11.00;72.80
913;DHT22;443;51.448;7.028;2022-12-07T09:52:48;10.90;73.10
913;DHT22;443;51.448;7.028;2022-12-07T09:55:19;11.10;74.30
913;DHT22;443;51.448;7.028;2022-12-07T09:57:48;11.10;73.10
913;DHT22;443;51.448;7.028;2022-12-07T10:00:20;11.00;73.60
913;DHT22;443;51.448;7.028;2022-12-07T10:02:50;11.20;72.90
913;DHT22;443;51.448;7.028;2022-12-07T10:05:20;11.20;73.60
913;DHT22;443;51.448;7.028;2022-12-07T10:07:48;11.30;73.30
913;DHT22;443;51.448;7.028;2022-12-07T10:10:19;11.30;72.80
913;DHT22;443;51.448;7.028;2022-12-07T10:12:54;11.10;72.70
913;DHT22;443;51.448;7.028;2022-12-07T10:15:23;11.10;73.10
913;DHT22;443;51.448;7.028;2022-12-07T10:17:51;11.10;73.10
913;DHT22;443;51.448;7.028;2022-12-07T10:20:24;11.10;73.80
913;DHT22;443;51.448;7.028;2022-12-07T10:23:01;11.20;73.30
913;DHT22;443;51.448;7.028;2022-12-07T10:25:30;11.10;72.90
913;DHT22;443;51.448;7.028;2022-12-07T10:28:09;11.20;73.80
913;DHT22;443;51.448;7.028;2022-12-07T10:30:50;11.20;73.20
913;DHT22;443;51.448;7.028;2022-12-07T10:33:29;11.20;73.30
913;DHT22;443;51.448;7.028;2022-12-07T10:35:56;11.40;74.50
913;DHT22;443;51.448;7.028;2022-12-07T10:38:25;11.30;72.80
913;DHT22;443;51.448;7.028;2022-12-07T10:41:03;11.30;72.60
913;DHT22;443;51.448;7.028;2022-12-07T10:43:30;11.50;74.40
913;DHT22;443;51.448;7.028;2022-12-07T10:49:12;11.40;72.40
913;DHT22;443;51.448;7.028;2022-12-07T10:51:46;11.40;72.90
913;DHT22;443;51.448;7.028;2022-12-07T10:54:21;11.50;72.90
913;DHT22;443;51.448;7.028;2022-12-07T10:57:07;11.50;72.30
913;DHT22;443;51.448;7.028;2022-12-07T10:59:53;11.50;72.50
913;DHT22;443;51.448;7.028;2022-12-07T11:02:36;11.50;71.80
913;DHT22;443;51.448;7.028;2022-12-07T11:05:18;11.50;73.50
913;DHT22;443;51.448;7.028;2022-12-07T11:07:56;11.50;71.60
913;DHT22;443;51.448;7.028;2022-12-07T11:10:30;11.60;71.90
913;DHT22;443;51.448;7.028;2022-12-07T11:13:20;11.70;72.90
913;DHT22;443;51.448;7.028;2022-12-07T11:16:00;11.60;72.40
913;DHT22;443;51.448;7.028;2022-12-07T11:18:34;11.60;74.00
913;DHT22;443;51.448;7.028;2022-12-07T11:21:09;11.60;72.20
913;DHT22;443;51.448;7.028;2022-12-07T11:23:46;11.60;71.70
913;DHT22;443;51.448;7.028;2022-12-07T11:26:21;11.60;72.10
913;DHT22;443;51.448;7.028;2022-12-07T11:29:03;11.70;72.90
913;DHT22;443;51.448;7.028;2022-12-07T11:31:37;11.60;72.30
913;DHT22;443;51.448;7.028;2022-12-07T11:34:10;11.60;71.80
913;DHT22;443;51.448;7.028;2022-12-07T11:36:44;11.70;72.60
913;DHT22;443;51.448;7.028;2022-12-07T11:39:19;11.60;71.80
913;DHT22;443;51.448;7.028;2022-12-07T11:41:49;11.60;71.60
913;DHT22;443;51.448;7.028;2022-12-07T11:44:26;11.60;72.10
913;DHT22;443;51.448;7.028;2022-12-07T11:46:58;11.70;71.60
913;DHT22;443;51.448;7.028;2022-12-07T11:49:35;11.60;71.30
913;DHT22;443;51.448;7.028;2022-12-07T11:52:06;11.60;71.90
913;DHT22;443;51.448;7.028;2022-12-07T11:54:40;11.70;71.70
913;DHT22;443;51.448;7.028;2022-12-07T11:57:13;11.70;72.60
913;DHT22;443;51.448;7.028;2022-12-07T11:59:47;11.60;70.80
913;DHT22;443;51.448;7.028;2022-12-07T12:02:16;11.70;71.50
913;DHT22;443;51.448;7.028;2022-12-07T12:04:51;11.60;71.00
913;DHT22;443;51.448;7.028;2022-12-07T12:07:23;11.80;72.00
913;DHT22;443;51.448;7.028;2022-12-07T12:09:53;11.80;72.00
913;DHT22;443;51.448;7.028;2022-12-07T12:12:40;11.80;70.90
913;DHT22;443;51.448;7.028;2022-12-07T12:15:22;11.70;70.70
913;DHT22;443;51.448;7.028;2022-12-07T12:18:19;11.70;71.90
913;DHT22;443;51.448;7.028;2022-12-07T12:20:54;11.70;71.20
913;DHT22;443;51.448;7.028;2022-12-07T12:23:27;11.60;71.30
913;DHT22;443;51.448;7.028;2022-12-07T12:26:00;11.60;70.90
913;DHT22;443;51.448;7.028;2022-12-07T12:28:30;11.70;71.40
913;DHT22;443;51.448;7.028;2022-12-07T12:31:07;11.70;70.70
913;DHT22;443;51.448;7.028;2022-12-07T12:33:35;11.70;71.60
913;DHT22;443;51.448;7.028;2022-12-07T12:36:23;11.70;70.50
913;DHT22;443;51.448;7.028;2022-12-07T12:39:09;11.60;70.70
913;DHT22;443;51.448;7.028;2022-12-07T12:41:56;11.60;70.80
913;DHT22;443;51.448;7.028;2022-12-07T12:47:53;11.60;71.20
913;DHT22;443;51.448;7.028;2022-12-07T12:50:23;11.60;71.00
913;DHT22;443;51.448;7.028;2022-12-07T12:52:54;11.60;72.50
913;DHT22;443;51.448;7.028;2022-12-07T12:58:46;11.60;71.50
913;DHT22;443;51.448;7.028;2022-12-07T13:01:44;11.60;70.10
913;DHT22;443;51.448;7.028;2022-12-07T13:04:34;11.70;71.70
913;DHT22;443;51.448;7.028;2022-12-07T13:07:03;11.80;70.90
913;DHT22;443;51.448;7.028;2022-12-07T13:09:32;11.70;70.30
913;DHT22;443;51.448;7.028;2022-12-07T13:12:03;11.70;70.80
913;DHT22;443;51.448;7.028;2022-12-07T13:14:43;11.70;71.50
913;DHT22;443;51.448;7.028;2022-12-07T13:23:33;11.80;70.30
913;DHT22;443;51.448;7.028;2022-12-07T13:26:16;11.70;70.70
913;DHT22;443;51.448;7.028;2022-12-07T13:28:46;11.60;71.40
913;DHT22;443;51.448;7.028;2022-12-07T13:31:32;11.70;71.00
913;DHT22;443;51.448;7.028;2022-12-07T13:34:00;11.70;70.80
913;DHT22;443;51.448;7.028;2022-12-07T13:36:30;11.60;72.20
913;DHT22;443;51.448;7.028;2022-12-07T13:39:11;11.60;70.70
913;DHT22;443;51.448;7.028;2022-12-07T13:41:43;11.60;70.70
913;DHT22;443;51.448;7.028;2022-12-07T13:44:13;11.70;71.30
913;DHT22;443;51.448;7.028;2022-12-07T13:46:45;11.70;71.10
913;DHT22;443;51.448;7.028;2022-12-07T13:49:20;11.60;70.70
913;DHT22;443;51.448;7.028;2022-12-07T13:51:48;11.70;71.30
913;DHT22;443;51.448;7.028;2022-12-07T13:54:15;11.70;70.30
913;DHT22;443;51.448;7.028;2022-12-07T13:56:42;11.70;70.70
913;DHT22;443;51.448;7.028;2022-12-07T13:59:14;11.60;70.80
913;DHT22;443;51.448;7.028;2022-12-07T14:01:44;11.60;71.10
913;DHT22;443;51.448;7.028;2022-12-07T14:04:32;11.70;71.40
913;DHT22;443;51.448;7.028;2022-12-07T14:07:01;11.70;70.70
913;DHT22;443;51.448;7.028;2022-12-07T14:09:54;11.70;71.20
913;DHT22;443;51.448;7.028;2022-12-07T14:12:21;11.80;71.10
913;DHT22;443;51.448;7.028;2022-12-07T14:14:49;11.80;70.40
913;DHT22;443;51.448;7.028;2022-12-07T14:17:18;11.90;70.80
913;DHT22;443;51.448;7.028;2022-12-07T14:19:48;11.80;70.50
913;DHT22;443;51.448;7.028;2022-12-07T14:22:25;11.80;71.20
913;DHT22;443;51.448;7.028;2022-12-07T14:24:59;11.70;70.10
913;DHT22;443;51.448;7.028;2022-12-07T14:27:32;11.80;71.60
913;DHT22;443;51.448;7.028;2022-12-07T14:30:02;11.90;70.90
913;DHT22;443;51.448;7.028;2022-12-07T14:32:30;11.80;70.30
913;DHT22;443;51.448;7.028;2022-12-07T14:34:59;11.80;70.90
913;DHT22;443;51.448;7.028;2022-12-07T14:37:28;11.90;70.90
913;DHT22;443;51.448;7.028;2022-12-07T14:39:56;11.80;70.40
913;DHT22;443;51.448;7.028;2022-12-07T14:42:25;11.80;71.30
913;DHT22;443;51.448;7.028;2022-12-07T14:44:53;11.90;72.50
913;DHT22;443;51.448;7.028;2022-12-07T14:47:21;11.90;71.40
913;DHT22;443;51.448;7.028;2022-12-07T14:49:48;12.00;72.90
913;DHT22;443;51.448;7.028;2022-12-07T14:52:17;11.80;70.30
913;DHT22;443;51.448;7.028;2022-12-07T14:54:45;11.80;71.80
913;DHT22;443;51.448;7.028;2022-12-07T14:57:12;11.90;72.30
913;DHT22;443;51.448;7.028;2022-12-07T14:59:39;11.90;72.80
913;DHT22;443;51.448;7.028;2022-12-07T15:02:06;11.70;70.50
913;DHT22;443;51.448;7.028;2022-12-07T15:04:34;11.70;71.10
913;DHT22;443;51.448;7.028;2022-12-07T15:07:03;11.80;72.00
913;DHT22;443;51.448;7.028;2022-12-07T15:09:30;11.80;72.70
913;DHT22;443;51.448;7.028;2022-12-07T15:11:57;11.70;70.50
913;DHT22;443;51.448;7.028;2022-12-07T15:14:24;11.80;72.90
913;DHT22;443;51.448;7.028;2022-12-07T15:16:50;11.90;73.30
913;DHT22;443;51.448;7.028;2022-12-07T15:19:19;11.80;70.90
913;DHT22;443;51.448;7.028;2022-12-07T15:21:49;11.80;71.80
913;DHT22;443;51.448;7.028;2022-12-07T15:24:16;11.80;72.00
913;DHT22;443;51.448;7.028;2022-12-07T15:26:43;11.80;71.20
913;DHT22;443;51.448;7.028;2022-12-07T15:29:10;11.70;71.90
913;DHT22;443;51.448;7.028;2022-12-07T15:31:37;11.80;72.10
913;DHT22;443;51.448;7.028;2022-12-07T15:34:04;11.90;73.40
913;DHT22;443;51.448;7.028;2022-12-07T15:36:32;11.80;73.60
913;DHT22;443;51.448;7.028;2022-12-07T15:39:01;11.80;72.20
913;DHT22;443;51.448;7.028;2022-12-07T15:41:27;11.80;73.50
913;DHT22;443;51.448;7.028;2022-12-07T15:43:54;11.80;71.90
913;DHT22;443;51.448;7.028;2022-12-07T15:46:40;11.70;73.00
913;DHT22;443;51.448;7.028;2022-12-07T15:49:11;11.80;73.60
913;DHT22;443;51.448;7.028;2022-12-07T15:51:38;11.80;73.50
913;DHT22;443;51.448;7.028;2022-12-07T15:54:06;11.80;72.60
913;DHT22;443;51.448;7.028;2022-12-07T15:56:33;11.70;71.50
913;DHT22;443;51.448;7.028;2022-12-07T15:58:59;11.70;72.60
913;DHT22;443;51.448;7.028;2022-12-07T16:01:26;11.80;72.00
913;DHT22;443;51.448;7.028;2022-12-07T16:03:53;11.70;72.40
913;DHT22;443;51.448;7.028;2022-12-07T16:06:20;11.60;71.30
913;DHT22;443;51.448;7.028;2022-12-07T16:08:46;11.70;73.30
913;DHT22;443;51.448;7.028;2022-12-07T16:11:15;11.60;71.00
913;DHT22;443;51.448;7.028;2022-12-07T16:13:42;11.70;72.70
913;DHT22;443;51.448;7.028;2022-12-07T16:16:11;11.60;71.20
913;DHT22;443;51.448;7.028;2022-12-07T16:18:38;11.40;71.40
913;DHT22;443;51.448;7.028;2022-12-07T16:21:05;11.40;71.90
913;DHT22;443;51.448;7.028;2022-12-07T16:23:32;11.40;72.70
913;DHT22;443;51.448;7.028;2022-12-07T16:26:07;11.40;71.90
913;DHT22;443;51.448;7.028;2022-12-07T16:28:35;11.50;72.70
913;DHT22;443;51.448;7.028;2022-12-07T16:31:07;11.50;72.70
913;DHT22;443;51.448;7.028;2022-12-07T16:33:35;11.50;73.20
913;DHT22;443;51.448;7.028;2022-12-07T16:36:03;11.60;73.00
913;DHT22;443;51.448;7.028;2022-12-07T16:38:30;11.60;71.90
913;DHT22;443;51.448;7.028;2022-12-07T16:40:57;11.60;72.00
913;DHT22;443;51.448;7.028;2022-12-07T16:43:24;11.50;71.60
913;DHT22;443;51.448;7.028;2022-12-07T16:45:52;11.60;72.80
913;DHT22;443;51.448;7.028;2022-12-07T16:48:19;11.60;71.80
913;DHT22;443;51.448;7.028;2022-12-07T16:50:46;11.60;72.00
913;DHT22;443;51.448;7.028;2022-12-07T16:53:14;11.50;71.00
913;DHT22;443;51.448;7.028;2022-12-07T16:55:43;11.50;71.60
913;DHT22;443;51.448;7.028;2022-12-07T16:58:11;11.50;71.50
913;DHT22;443;51.448;7.028;2022-12-07T17:00:39;11.60;72.70
913;DHT22;443;51.448;7.028;2022-12-07T17:03:08;11.50;71.70
913;DHT22;443;51.448;7.028;2022-12-07T17:05:38;11.70;73.10
913;DHT22;443;51.448;7.028;2022-12-07T17:08:05;11.60;71.70
913;DHT22;443;51.448;7.028;2022-12-07T17:10:33;11.60;72.50
913;DHT22;443;51.448;7.028;2022-12-07T17:13:01;11.70;72.10
913;DHT22;443;51.448;7.028;2022-12-07T17:15:28;11.70;72.80